Time;durP1;ratioP1;P1;durP2;ratioP2;P2;SDS_P1;SDS_P2;PMS_P1;PMS_P2;Temp;Humidity;BMP_temperature;BMP_pressure;BME280_temperature;BME280_humidity;BME280_pressure;Samples;Min_cycle;Max_cycle;Signal;HPM_P1;HPM_P2
2021/12/12 00:02:56;;;;;;;18.90;9.83;;;;;;;2.78;68.55;100338.72;5428838;32;34662;-71
2021/12/12 00:06:06;;;;;;;22.77;10.30;;;;;;;3.52;66.07;100329.31;5431612;32;33081;-72
2021/12/12 00:09:14;;;;;;;20.93;9.93;;;;;;;3.85;63.66;100335.00;5445314;32;34855;-71
2021/12/12 00:12:25;;;;;;;23.73;11.07;;;;;;;4.18;62.45;100331.09;5411380;32;35324;-71
2021/12/12 00:15:28;;;;;;;19.33;10.33;;;;;;;3.46;65.00;100344.97;5404345;32;34506;-72
2021/12/12 00:18:31;;;;;;;19.83;9.07;;;;;;;3.84;63.62;100344.53;5429650;32;34764;-71
2021/12/12 00:21:35;;;;;;;19.37;10.13;;;;;;;3.24;65.16;100344.34;5394729;32;34103;-71
2021/12/12 00:24:37;;;;;;;;;;;;;;;2.94;65.99;100348.94;5430038;32;33915;-71
2021/12/12 00:27:39;;;;;;;19.77;9.13;;;;;;;3.30;65.32;100346.88;5414822;32;34155;-71
2021/12/12 00:30:43;;;;;;;22.27;10.90;;;;;;;2.28;67.60;100350.31;5435140;32;34784;-71
2021/12/12 00:33:49;;;;;;;23.65;9.90;;;;;;;2.02;69.37;100348.72;5413145;32;34720;-72
2021/12/12 00:36:52;;;;;;;22.10;10.63;;;;;;;2.60;67.76;100343.16;5407134;32;35029;-72
2021/12/12 00:39:57;;;;;;;21.63;9.47;;;;;;;2.41;67.71;100345.03;5422560;32;34723;-71
2021/12/12 00:43:08;;;;;;;20.20;10.27;;;;;;;2.05;68.65;100343.50;5412859;32;34966;-71
2021/12/12 00:46:15;;;;;;;23.27;11.90;;;;;;;2.87;66.78;100333.44;5432689;32;34353;-72
2021/12/12 00:49:17;;;;;;;;;;;;;;;2.48;67.85;100330.28;5425874;32;32537;-72
2021/12/12 00:52:21;;;;;;;26.00;12.37;;;;;;;2.68;67.72;100330.12;5431302;32;35827;-72
2021/12/12 00:55:24;;;;;;;25.55;11.20;;;;;;;2.61;66.98;100334.50;5413933;32;33994;-71
2021/12/12 00:58:27;;;;;;;20.58;11.07;;;;;;;2.60;67.71;100337.97;5404919;32;35179;-70
2021/12/12 01:01:37;;;;;;;23.27;11.20;;;;;;;2.41;67.69;100358.00;5411570;32;34007;-70
2021/12/12 01:04:43;;;;;;;22.93;11.30;;;;;;;2.27;68.71;100365.00;5419785;32;35188;-71
2021/12/12 01:07:48;;;;;;;23.40;11.50;;;;;;;3.23;64.63;100358.22;5433470;32;34136;-71
2021/12/12 01:10:58;;;;;;;23.80;10.90;;;;;;;2.78;66.09;100375.06;5428881;32;36484;-71
2021/12/12 01:14:04;;;;;;;24.20;12.03;;;;;;;2.49;66.44;100386.47;5429453;32;35067;-72
2021/12/12 01:17:14;;;;;;;29.70;11.43;;;;;;;2.85;65.36;100384.50;5421498;32;33842;-71
2021/12/12 01:20:33;;;;;;;25.63;12.20;;;;;;;2.52;66.84;100390.81;5403134;32;34262;-71
2021/12/12 01:23:52;;;;;;;24.33;11.63;;;;;;;3.32;63.34;100391.03;5429240;32;34085;-71
2021/12/12 01:26:57;;;;;;;23.90;12.00;;;;;;;2.49;66.77;100385.63;5428238;32;34238;-71
2021/12/12 01:29:59;;;;;;;27.30;12.67;;;;;;;2.89;64.46;100386.19;5414364;32;34453;-71
2021/12/12 01:33:03;;;;;;;24.53;11.63;;;;;;;2.54;66.39;100397.69;5418793;32;35058;-71
2021/12/12 01:36:12;;;;;;;24.23;12.82;;;;;;;2.85;66.03;100400.09;5405305;32;35917;-71
2021/12/12 01:39:18;;;;;;;28.20;12.57;;;;;;;2.75;65.45;100398.41;5436557;32;35726;-71
2021/12/12 01:42:28;;;;;;;24.23;11.80;;;;;;;3.51;63.12;100397.75;5429896;32;36644;-71
2021/12/12 01:45:43;;;;;;;26.53;12.93;;;;;;;3.86;61.92;100389.56;5417902;32;34423;-71
2021/12/12 01:48:53;;;;;;;26.23;12.13;;;;;;;2.56;66.72;100393.34;5421610;32;34640;-71
2021/12/12 01:51:58;;;;;;;29.07;13.20;;;;;;;2.79;66.13;100389.75;5406562;32;34287;-72
2021/12/12 01:55:12;;;;;;;;;;;;;;;2.81;65.36;100400.97;5425223;32;34922;-71
2021/12/12 01:58:18;;;;;;;24.58;12.43;;;;;;;2.62;65.59;100405.44;5416635;32;35313;-71
2021/12/12 02:01:28;;;;;;;28.07;13.57;;;;;;;2.74;65.28;100409.69;5428940;32;35850;-71
2021/12/12 02:04:40;;;;;;;28.63;12.67;;;;;;;2.65;66.25;100410.59;5436017;32;33244;-71
2021/12/12 02:07:46;;;;;;;30.53;14.33;;;;;;;3.22;63.46;100408.41;5411764;32;34161;-72
2021/12/12 02:10:57;;;;;;;28.23;14.40;;;;;;;2.91;64.16;100407.84;5434577;32;35509;-71
2021/12/12 02:14:08;;;;;;;26.23;13.03;;;;;;;2.44;66.91;100407.25;5414936;32;33085;-71
2021/12/12 02:17:24;;;;;;;28.43;14.30;;;;;;;3.10;63.58;100401.62;5408981;32;33595;-71
2021/12/12 02:20:42;;;;;;;28.03;13.63;;;;;;;1.99;68.45;100408.31;5417195;32;34834;-71
2021/12/12 02:24:35;;;;;;;30.27;15.10;;;;;;;3.23;63.91;100398.03;5420365;32;34880;-71
2021/12/12 02:37:32;;;;;;;30.20;14.30;;;;;;;1.89;67.87;100411.84;5429343;32;33109;-71
2021/12/12 02:40:39;;;;;;;31.50;14.77;;;;;;;2.25;66.24;100404.75;5423082;32;34658;-71
2021/12/12 02:43:49;;;;;;;31.67;14.93;;;;;;;1.45;69.67;100410.22;5433366;32;34889;-71
2021/12/12 02:46:53;;;;;;;31.67;13.77;;;;;;;1.53;69.01;100408.47;5428403;32;33981;-72
2021/12/12 02:50:08;;;;;;;30.07;13.70;;;;;;;1.58;68.96;100411.06;5415970;32;34528;-71
2021/12/12 02:53:16;;;;;;;30.70;13.75;;;;;;;1.26;70.83;100418.88;5436235;32;35125;-71
2021/12/12 02:56:32;;;;;;;28.73;14.80;;;;;;;2.20;67.38;100410.00;5432121;32;35269;-71
2021/12/12 02:59:36;;;;;;;31.70;15.53;;;;;;;1.07;70.59;100421.47;5424848;32;34234;-71
2021/12/12 03:02:45;;;;;;;34.95;14.87;;;;;;;1.05;71.16;100418.03;5406530;32;34764;-71
2021/12/12 03:05:49;;;;;;;32.27;15.77;;;;;;;1.07;71.28;100418.88;5420352;32;34497;-70
2021/12/12 03:08:55;;;;;;;29.53;13.97;;;;;;;1.02;71.91;100419.72;5432922;32;35345;-71
2021/12/12 03:12:06;;;;;;;33.63;14.93;;;;;;;1.04;71.56;100415.44;5435941;32;32927;-71
2021/12/12 03:15:14;;;;;;;30.80;16.03;;;;;;;0.89;72.36;100418.88;5423545;32;34492;-71
2021/12/12 03:18:20;;;;;;;34.03;15.57;;;;;;;0.75;72.54;100424.03;5406129;32;34290;-71
2021/12/12 03:21:32;;;;;;;33.80;14.80;;;;;;;0.87;72.03;100433.53;5424140;32;33865;-71
2021/12/12 03:24:36;;;;;;;30.07;13.57;;;;;;;0.89;71.96;100430.94;5415621;32;35078;-71
2021/12/12 03:27:39;;;;;;;;;;;;;;;1.12;71.27;100444.78;5409728;32;34030;-71
2021/12/12 03:30:43;;;;;;;29.30;13.50;;;;;;;1.04;70.91;100439.59;5436278;32;35403;-70
2021/12/12 03:33:46;;;;;;;32.03;15.17;;;;;;;1.20;70.80;100439.59;5435242;32;33468;-72
2021/12/12 03:36:50;;;;;;;32.93;15.17;;;;;;;1.45;70.02;100449.06;5425630;32;34063;-69
2021/12/12 03:39:54;;;;;;;31.83;13.88;;;;;;;0.99;71.06;100461.16;5408075;32;34770;-71
2021/12/12 03:42:58;;;;;;;34.53;14.90;;;;;;;1.05;71.39;100467.19;5422752;32;33974;-71
2021/12/12 03:46:05;;;;;;;30.77;14.77;;;;;;;1.18;70.42;100474.97;5425593;32;35525;-71
2021/12/12 03:49:09;;;;;;;33.43;14.47;;;;;;;0.95;71.46;100486.16;5416611;32;34356;-71
2021/12/12 03:52:14;;;;;;;33.35;15.25;;;;;;;1.64;69.31;100486.19;5434367;32;34842;-71
2021/12/12 03:55:18;;;;;;;31.50;14.20;;;;;;;1.11;70.23;100483.59;5420546;32;34703;-72
2021/12/12 03:58:20;;;;;;;30.77;14.77;;;;;;;1.06;69.87;100499.13;5415428;32;32608;-72
2021/12/12 04:01:32;;;;;;;32.63;13.77;;;;;;;0.91;71.47;100507.72;5418367;32;34251;-72
2021/12/12 04:04:40;;;;;;;34.15;14.57;;;;;;;1.04;70.63;100506.91;5422779;32;32699;-72
2021/12/12 04:07:43;;;;;;;28.87;14.23;;;;;;;0.50;72.84;100516.22;5423420;32;33814;-71
2021/12/12 04:10:45;;;;;;;28.90;14.50;;;;;;;0.75;71.84;100512.00;5409082;32;36420;-72
2021/12/12 04:13:50;;;;;;;28.07;12.67;;;;;;;1.05;70.74;100520.69;5427220;32;34633;-72
2021/12/12 04:16:56;;;;;;;27.90;11.90;;;;;;;1.20;70.13;100514.66;5426175;32;33320;-71
2021/12/12 04:20:03;;;;;;;31.27;13.33;;;;;;;0.96;71.02;100513.75;5412127;32;33893;-71
2021/12/12 04:23:17;;;;;;;27.77;11.97;;;;;;;0.75;71.37;100517.16;5409513;32;33181;-72
2021/12/12 04:26:28;;;;;;;28.13;13.33;;;;;;;0.98;70.88;100514.66;5403342;32;34052;-70
2021/12/12 04:29:35;;;;;;;32.17;14.03;;;;;;;1.17;68.78;100519.84;5430650;32;34767;-71
2021/12/12 04:32:38;;;;;;;31.13;14.50;;;;;;;1.10;70.12;100523.31;5420579;32;35217;-72
2021/12/12 04:35:41;;;;;;;28.40;13.57;;;;;;;1.39;68.69;100516.41;5403303;32;34349;-71
2021/12/12 04:38:45;;;;;;;31.90;13.73;;;;;;;1.15;69.55;100514.66;5410514;32;34054;-71
2021/12/12 04:41:50;;;;;;;32.80;13.93;;;;;;;1.25;69.28;100512.94;5404194;32;34728;-71
2021/12/12 04:44:57;;;;;;;31.43;14.10;;;;;;;1.07;69.48;100516.38;5433340;32;34745;-71
2021/12/12 04:51:57;;;;;;;28.33;13.52;;;;;;;1.18;68.21;100521.59;5427126;32;33140;-71
2021/12/12 04:55:32;;;;;;;28.27;12.97;;;;;;;1.16;68.94;100512.94;5423054;32;34143;-71
2021/12/12 04:58:50;;;;;;;32.85;14.65;;;;;;;0.76;70.80;100512.84;5406564;32;32779;-71
2021/12/12 05:02:14;;;;;;;28.07;13.43;;;;;;;0.48;71.59;100507.59;5407053;32;33579;-71
2021/12/12 05:05:34;;;;;;;28.67;12.45;;;;;;;0.81;69.86;100498.22;5433347;32;35025;-71
2021/12/12 05:08:42;;;;;;;29.63;14.23;;;;;;;0.66;70.64;100505.94;5428484;32;35011;-71
2021/12/12 05:11:55;;;;;;;26.13;12.27;;;;;;;0.94;69.84;100505.13;5432878;32;33069;-71
2021/12/12 05:15:14;;;;;;;23.60;12.10;;;;;;;0.98;68.97;100488.78;5407408;32;34938;-71
2021/12/12 05:18:36;;;;;;;29.10;13.10;;;;;;;1.03;69.13;100496.50;5414749;32;34622;-70
2021/12/12 05:21:51;;;;;;;29.50;13.07;;;;;;;0.86;69.19;100504.28;5417363;32;32804;-71
2021/12/12 05:24:54;;;;;;;26.30;12.13;;;;;;;0.86;69.69;100498.22;5418815;32;34747;-70
2021/12/12 05:27:57;;;;;;;27.53;12.27;;;;;;;0.89;69.49;100509.44;5431471;32;33979;-72
2021/12/12 05:31:00;;;;;;;28.47;12.87;;;;;;;0.88;69.36;100501.69;5425674;32;35811;-71
2021/12/12 05:34:04;;;;;;;28.23;11.80;;;;;;;1.03;68.60;100505.16;5393785;32;35987;-71
2021/12/12 05:37:10;;;;;;;27.20;11.65;;;;;;;1.23;67.95;100505.19;5421919;32;33549;-71
2021/12/12 05:40:13;;;;;;;29.47;12.67;;;;;;;1.28;66.62;100497.41;5417883;32;34740;-71
2021/12/12 05:43:17;;;;;;;24.70;11.50;;;;;;;1.65;66.47;100506.03;5413089;32;34163;-71
2021/12/12 05:46:21;;;;;;;28.38;13.43;;;;;;;1.10;67.63;100507.78;5426112;32;33305;-70
2021/12/12 05:49:24;;;;;;;29.58;11.85;;;;;;;1.66;66.06;100504.31;5407333;32;33038;-71
2021/12/12 05:52:26;;;;;;;27.07;12.57;;;;;;;1.16;67.34;100502.56;5409161;32;33117;-72
2021/12/12 05:55:32;;;;;;;29.07;13.33;;;;;;;1.04;67.98;100503.44;5416704;32;35337;-72
2021/12/12 05:58:35;;;;;;;30.03;13.13;;;;;;;1.21;67.22;100506.91;5422485;32;34297;-71
2021/12/12 06:01:39;;;;;;;28.43;12.03;;;;;;;1.27;66.51;100506.03;5402352;32;34952;-73
2021/12/12 06:04:42;;;;;;;28.67;13.00;;;;;;;1.47;66.27;100514.69;5409679;32;35033;-72
2021/12/12 06:07:46;;;;;;;26.95;12.45;;;;;;;1.40;65.98;100515.53;5404310;32;33421;-71
2021/12/12 06:10:51;;;;;;;23.58;11.02;;;;;;;1.49;65.91;100531.09;5412320;32;34127;-71
2021/12/12 06:13:55;;;;;;;29.20;12.47;;;;;;;1.38;65.63;100529.38;5423123;32;34262;-71
2021/12/12 06:17:01;;;;;;;26.30;12.40;;;;;;;1.50;65.28;100529.38;5404752;32;36602;-72
2021/12/12 06:20:08;;;;;;;29.17;12.70;;;;;;;1.07;66.75;100537.94;5407519;32;33974;-71
2021/12/12 06:23:10;;;;;;;28.50;12.30;;;;;;;1.35;66.34;100541.47;5423306;32;34338;-71
2021/12/12 06:26:12;;;;;;;25.37;12.43;;;;;;;0.93;67.29;100542.25;5433336;32;34062;-71
2021/12/12 06:29:16;;;;;;;28.53;12.10;;;;;;;1.39;66.16;100547.50;5434541;32;34404;-72
2021/12/12 06:32:19;;;;;;;25.52;12.68;;;;;;;2.10;63.23;100554.34;5415285;32;33084;-72
2021/12/12 06:35:23;;;;;;;26.92;12.27;;;;;;;1.80;64.01;100560.47;5421873;32;35418;-72
2021/12/12 06:38:25;;;;;;;26.60;13.20;;;;;;;1.73;64.64;100570.81;5431191;32;35126;-71
2021/12/12 06:41:28;;;;;;;30.57;12.20;;;;;;;1.82;63.48;100568.22;5430905;32;34601;-72
2021/12/12 06:44:31;;;;;;;26.03;11.67;;;;;;;2.42;61.95;100566.37;5430894;32;34746;-73
2021/12/12 06:47:34;;;;;;;31.30;12.35;;;;;;;1.37;65.21;100563.91;5419284;32;34213;-72
2021/12/12 06:50:40;;;;;;;26.27;11.47;;;;;;;1.25;65.56;100564.75;5421897;32;34872;-71
2021/12/12 06:53:45;;;;;;;21.57;10.80;;;;;;;0.98;66.45;100562.97;5412431;32;33067;-72
2021/12/12 06:56:50;;;;;;;24.43;10.63;;;;;;;1.15;65.83;100570.75;5417524;32;34521;-71
2021/12/12 06:59:53;;;;;;;24.83;11.10;;;;;;;1.12;65.99;100575.94;5416274;32;33625;-71
2021/12/12 07:02:55;;;;;;;25.27;9.93;;;;;;;1.31;65.22;100570.78;5423758;32;35241;-71
2021/12/12 07:05:59;;;;;;;23.57;10.63;;;;;;;1.15;65.95;100568.16;5433159;32;34900;-71
2021/12/12 07:09:05;;;;;;;22.20;10.30;;;;;;;1.41;65.06;100578.56;5406741;32;33841;-71
2021/12/12 07:12:10;;;;;;;19.37;9.80;;;;;;;1.26;65.01;100582.00;5435136;32;34002;-71
2021/12/12 07:15:15;;;;;;;22.60;9.33;;;;;;;1.15;65.57;100575.94;5405267;32;36006;-71
2021/12/12 07:18:24;;;;;;;22.80;10.40;;;;;;;1.01;65.83;100574.16;5423536;32;34186;-73
2021/12/12 07:21:27;;;;;;;21.13;10.53;;;;;;;1.38;64.84;100579.44;5412432;32;34968;-71
2021/12/12 07:24:32;;;;;;;23.27;10.00;;;;;;;1.04;65.61;100581.97;5426170;32;34675;-72
2021/12/12 07:27:37;;;;;;;18.80;8.60;;;;;;;1.72;63.83;100566.50;5408913;32;34553;-72
2021/12/12 07:30:40;;;;;;;19.75;9.95;;;;;;;1.77;63.84;100559.59;5419535;32;33412;-72
2021/12/12 07:33:44;;;;;;;20.67;9.75;;;;;;;1.19;65.40;100567.31;5432993;32;34873;-71
2021/12/12 07:36:49;;;;;;;16.85;7.72;;;;;;;1.18;65.38;100578.53;5409488;32;33401;-71
2021/12/12 07:39:52;;;;;;;24.00;11.27;;;;;;;1.27;64.99;100563.88;5410314;32;36291;-72
2021/12/12 07:42:55;;;;;;;21.17;9.33;;;;;;;1.47;64.47;100565.63;5430874;32;33987;-71
2021/12/12 07:45:58;;;;;;;20.95;9.52;;;;;;;1.62;64.37;100583.78;5416388;32;33281;-71
2021/12/12 07:49:02;;;;;;;21.45;8.93;;;;;;;2.18;62.71;100577.66;5401158;32;34271;-71
2021/12/12 07:52:08;;;;;;;19.90;9.32;;;;;;;2.24;61.90;100574.19;5425076;32;34080;-71
2021/12/12 07:55:11;;;;;;;24.57;9.03;;;;;;;1.74;63.09;100572.53;5428983;32;34044;-71
2021/12/12 07:58:16;;;;;;;20.00;10.03;;;;;;;1.86;62.28;100586.34;5416970;32;33855;-71
2021/12/12 08:01:19;;;;;;;22.30;9.93;;;;;;;1.63;63.69;100593.28;5422935;32;33800;-71
2021/12/12 08:04:27;;;;;;;21.83;8.67;;;;;;;1.52;64.39;100579.44;5409617;32;33042;-71
2021/12/12 08:07:30;;;;;;;19.87;8.63;;;;;;;1.41;64.23;100578.56;5416608;32;34923;-72
2021/12/12 08:10:36;;;;;;;19.37;8.27;;;;;;;1.50;64.14;100582.03;5403310;32;34789;-70
2021/12/12 08:13:39;;;;;;;19.17;8.03;;;;;;;1.58;63.36;100577.72;5431303;32;32854;-73
2021/12/12 08:16:45;;;;;;;19.70;9.03;;;;;;;1.87;62.89;100582.06;5410218;32;33160;-71
2021/12/12 08:19:48;;;;;;;18.47;8.90;;;;;;;1.75;62.84;100592.41;5415169;32;35377;-70
2021/12/12 08:22:51;;;;;;;18.27;8.68;;;;;;;1.51;63.70;100601.03;5402785;32;33103;-72
2021/12/12 08:25:54;;;;;;;19.50;8.93;;;;;;;1.77;62.55;100608.81;5419618;32;32959;-71
2021/12/12 08:28:58;;;;;;;19.65;9.38;;;;;;;1.95;62.41;100603.63;5415564;32;34808;-71
2021/12/12 08:32:09;;;;;;;21.02;9.02;;;;;;;2.72;59.91;100605.22;5409741;32;34713;-71
2021/12/12 08:35:28;;;;;;;17.47;9.10;;;;;;;2.34;60.47;100610.50;5404685;32;34682;-71
2021/12/12 08:38:31;;;;;;;20.90;9.30;;;;;;;2.20;61.13;100608.81;5422083;32;33992;-71
2021/12/12 08:41:35;;;;;;;20.42;9.48;;;;;;;2.32;60.50;100617.44;5431939;32;35588;-71
2021/12/12 08:44:38;;;;;;;24.05;8.93;;;;;;;2.99;58.52;100612.00;5414913;32;33964;-71
2021/12/12 08:47:47;;;;;;;18.67;9.27;;;;;;;2.64;59.29;100609.56;5423244;32;33962;-71
2021/12/12 08:50:56;;;;;;;19.40;8.90;;;;;;;2.51;59.91;100607.84;5402281;32;34323;-70
2021/12/12 08:54:03;;;;;;;18.33;8.83;;;;;;;2.46;59.91;100608.75;5416825;32;35272;-71
2021/12/12 08:57:32;;;;;;;16.57;7.73;;;;;;;2.88;58.92;100613.78;5429847;32;34561;-71
2021/12/12 09:01:06;;;;;;;17.80;8.73;;;;;;;2.53;59.49;100600.94;5410533;32;34403;-71
2021/12/12 09:04:11;;;;;;;25.00;8.97;;;;;;;2.76;58.84;100608.62;5406673;32;149531;-71
2021/12/12 09:07:38;;;;;;;19.67;8.70;;;;;;;2.43;59.91;100601.81;5427445;32;34085;-70
2021/12/12 09:10:54;;;;;;;18.23;8.10;;;;;;;2.77;58.77;100602.59;5429168;32;34188;-72
2021/12/12 09:14:08;;;;;;;17.87;8.80;;;;;;;2.97;58.09;100597.31;5436103;32;33274;-70
2021/12/12 09:17:17;;;;;;;16.65;8.15;;;;;;;2.85;58.13;100600.84;5423612;32;34521;-71
2021/12/12 09:20:31;;;;;;;19.10;8.03;;;;;;;3.25;57.33;100595.44;5416725;32;34452;-71
2021/12/12 09:23:41;;;;;;;17.90;8.52;;;;;;;3.49;56.50;100581.44;5410967;32;36075;-71
2021/12/12 09:26:48;;;;;;;14.67;6.57;;;;;;;3.78;55.56;100581.19;5429330;32;34978;-71
2021/12/12 09:30:03;;;;;;;21.53;7.83;;;;;;;3.19;56.42;100570.34;5421919;32;34475;-73
2021/12/12 09:33:22;;;;;;;18.40;8.10;;;;;;;3.16;56.94;100588.56;5417014;32;34123;-71
2021/12/12 09:36:35;;;;;;;19.73;8.27;;;;;;;2.77;57.81;100587.03;5412509;32;33118;-72
2021/12/12 09:39:55;;;;;;;17.87;7.97;;;;;;;2.79;58.58;100581.81;5427972;32;32434;-72
2021/12/12 09:43:00;;;;;;;16.90;7.70;;;;;;;3.09;57.60;100580.78;5421692;32;34112;-71
2021/12/12 09:46:19;;;;;;;17.00;7.70;;;;;;;3.09;57.45;100570.41;5418772;32;34211;-72
2021/12/12 09:53:20;;;;;;;16.70;6.97;;;;;;;2.55;58.95;100569.81;5429232;32;35398;-71
2021/12/12 09:56:47;;;;;;;17.53;7.60;;;;;;;2.93;57.73;100572.25;5437254;32;35326;-72
2021/12/12 10:00:13;;;;;;;17.23;6.70;;;;;;;2.82;58.30;100574.00;5420501;32;34902;-72
2021/12/12 10:03:27;;;;;;;16.90;7.07;;;;;;;2.98;57.76;100586.91;5435883;32;34624;-76
2021/12/12 10:06:56;;;;;;;16.52;7.45;;;;;;;3.14;57.45;100585.09;5426964;32;35337;-72
2021/12/12 10:10:07;;;;;;;16.03;7.03;;;;;;;3.14;57.16;100573.84;5414630;32;34261;-72
2021/12/12 10:13:29;;;;;;;14.07;6.00;;;;;;;3.33;56.48;100570.25;5433405;32;35163;-73
2021/12/12 10:17:10;;;;;;;12.63;6.30;;;;;;;3.57;56.29;100573.56;5422378;32;35013;-72
2021/12/12 10:20:34;;;;;;;13.77;6.20;;;;;;;3.06;57.63;100581.69;5366006;32;34649;-72
2021/12/12 10:23:41;;;;;;;15.50;6.50;;;;;;;2.80;58.79;100580.94;5375827;32;34124;-71
2021/12/12 10:26:49;;;;;;;15.33;6.33;;;;;;;3.23;57.69;100573.81;5429321;32;34380;-71
2021/12/12 10:30:00;;;;;;;18.80;6.73;;;;;;;2.77;58.86;100587.03;5420676;32;34127;-72
2021/12/12 10:33:15;;;;;;;15.70;6.30;;;;;;;3.63;56.41;100574.38;5436094;32;33624;-71
2021/12/12 10:36:22;;;;;;;13.60;6.30;;;;;;;3.65;56.67;100570.03;5430332;32;35009;-72
2021/12/12 10:39:30;;;;;;;12.23;5.57;;;;;;;3.42;56.91;100569.34;5410721;32;34585;-72
2021/12/12 10:42:38;;;;;;;15.37;6.07;;;;;;;3.50;56.40;100565.81;5417356;32;34213;-72
2021/12/12 10:45:47;;;;;;;12.33;5.93;;;;;;;3.60;55.92;100568.34;5421799;32;34685;-73
2021/12/12 10:49:04;;;;;;;12.10;6.07;;;;;;;3.48;56.27;100557.19;5420324;32;33218;-71
2021/12/12 10:52:15;;;;;;;13.33;5.57;;;;;;;3.84;56.03;100564.69;5417782;32;34551;-70
2021/12/12 10:55:23;;;;;;;16.90;5.83;;;;;;;3.74;55.74;100559.56;5409581;32;33862;-72
2021/12/12 10:58:26;;;;;;;10.20;4.40;;;;;;;3.45;56.66;100561.53;5417813;32;33952;-71
2021/12/12 11:01:36;;;;;;;12.40;4.95;;;;;;;4.06;54.72;100555.81;5421868;32;34675;-72
2021/12/12 11:04:49;;;;;;;11.60;5.17;;;;;;;3.98;55.18;100562.81;5418154;32;34192;-71
2021/12/12 11:08:06;;;;;;;10.93;4.50;;;;;;;3.92;55.62;100560.25;5403749;32;33448;-72
2021/12/12 11:11:53;;;;;;;22.53;11.13;;;;;;;4.01;55.24;100562.81;5435047;32;34376;-71
2021/12/12 11:15:26;;;;;;;11.53;5.00;;;;;;;4.14;54.98;100561.81;5416223;32;34310;-71
2021/12/12 11:18:43;;;;;;;16.87;5.78;;;;;;;4.09;54.95;100558.38;5402054;32;34004;-72
2021/12/12 11:21:51;;;;;;;13.57;5.00;;;;;;;3.95;55.54;100550.72;5432452;32;34854;-72
2021/12/12 11:25:06;;;;;;;10.43;4.43;;;;;;;3.97;55.52;100541.16;5416568;32;34293;-72
2021/12/12 11:28:17;;;;;;;11.80;4.80;;;;;;;4.65;53.73;100541.28;5408914;32;34158;-72
2021/12/12 11:31:24;;;;;;;13.67;4.40;;;;;;;4.56;54.02;100533.56;5430677;32;35269;-71
2021/12/12 11:34:27;;;;;;;9.83;4.40;;;;;;;4.76;52.90;100535.91;5430197;32;34323;-72
2021/12/12 11:37:43;;;;;;;10.65;4.55;;;;;;;4.61;53.45;100536.97;5419839;32;32970;-71
2021/12/12 11:40:56;;;;;;;11.63;4.63;;;;;;;4.43;53.37;100538.06;5415852;32;34107;-72
2021/12/12 11:44:29;;;;;;;10.07;4.67;;;;;;;4.57;53.41;100540.50;5431319;32;35294;-73
2021/12/12 11:47:56;;;;;;;12.23;5.17;;;;;;;5.13;51.63;100531.06;5429723;32;34430;-71
2021/12/12 11:51:12;;;;;;;13.03;4.33;;;;;;;5.01;51.77;100541.66;5416625;32;34350;-72
2021/12/12 11:54:36;;;;;;;10.03;4.40;;;;;;;4.78;52.13;100532.44;5434515;32;35171;-72
2021/12/12 11:58:02;;;;;;;13.50;4.55;;;;;;;5.14;51.41;100536.25;5431774;32;33975;-71
2021/12/12 12:01:47;;;;;;;9.97;4.70;;;;;;;5.48;49.93;100540.12;5415376;32;34769;-72
2021/12/12 12:05:17;;;;;;;10.63;4.30;;;;;;;5.77;49.27;100524.84;5396296;32;34090;-72
2021/12/12 12:08:35;;;;;;;9.53;4.07;;;;;;;6.84;46.76;100527.16;5397198;32;32831;-73
2021/12/12 12:12:08;;;;;;;10.23;3.90;;;;;;;6.86;46.44;100526.22;5414836;32;34544;-71
2021/12/12 12:15:21;;;;;;;12.97;4.03;;;;;;;6.54;47.01;100537.34;5435115;32;34239;-71
2021/12/12 12:18:51;;;;;;;9.97;4.30;;;;;;;6.81;46.61;100541.13;5419212;32;34206;-73
2021/12/12 12:22:08;;;;;;;14.60;4.60;;;;;;;6.63;46.91;100538.91;5414356;32;34141;-72
2021/12/12 12:25:23;;;;;;;9.60;4.07;;;;;;;8.54;42.54;100519.41;5435101;32;32935;-72
2021/12/12 12:28:50;;;;;;;9.63;3.63;;;;;;;6.34;46.82;100540.34;5430491;32;33582;-71
2021/12/12 12:32:31;;;;;;;10.60;4.17;;;;;;;5.91;48.82;100538.53;5416942;32;33993;-72
2021/12/12 12:36:11;;;;;;;10.80;4.40;;;;;;;6.39;47.45;100541.13;5415578;32;34444;-71
2021/12/12 12:39:31;;;;;;;31.77;4.83;;;;;;;6.89;45.89;100539.25;5410747;32;34037;-72
2021/12/12 12:43:03;;;;;;;10.47;4.73;;;;;;;5.56;49.20;100561.72;5411857;32;33965;-72
2021/12/12 12:46:08;;;;;;;10.33;4.60;;;;;;;5.29;50.12;100553.44;5389277;32;34146;-72
2021/12/12 12:49:49;;;;;;;12.10;4.67;;;;;;;4.96;51.02;100551.28;5410799;32;34034;-71
2021/12/12 12:53:13;;;;;;;7.60;3.70;;;;;;;6.33;47.57;100546.47;5414688;32;34784;-72
2021/12/12 12:56:57;;;;;;;13.18;5.05;;;;;;;5.68;48.82;100551.09;5416037;32;34735;-71
2021/12/12 13:00:14;;;;;;;15.13;4.05;;;;;;;5.21;50.02;100565.69;5384076;32;34378;-71
2021/12/12 13:03:29;;;;;;;10.03;3.90;;;;;;;4.58;51.50;100568.28;5419252;32;34098;-72
2021/12/12 13:06:50;;;;;;;11.30;4.50;;;;;;;4.75;51.47;100576.72;5404480;32;34162;-72
2021/12/12 13:10:06;;;;;;;10.23;4.37;;;;;;;4.17;53.38;100576.50;5409043;32;35268;-73
2021/12/12 13:13:30;;;;;;;9.77;4.33;;;;;;;4.63;52.09;100582.06;5418057;32;32914;-71
2021/12/12 13:16:44;;;;;;;9.98;4.12;;;;;;;4.66;52.10;100594.22;5396048;32;33324;-72
2021/12/12 13:19:56;;;;;;;9.00;4.17;;;;;;;4.78;51.54;100596.66;5399113;32;34461;-72
2021/12/12 13:23:40;;;;;;;9.33;4.17;;;;;;;4.89;51.48;100600.88;5411208;32;34699;-70
2021/12/12 13:27:04;;;;;;;;;;;;;;;4.48;52.42;100609.13;5399488;32;35096;-72
2021/12/12 13:30:30;;;;;;;11.13;4.47;;;;;;;4.27;53.11;100607.63;5411240;32;34858;-71
2021/12/12 13:33:47;;;;;;;10.33;4.10;;;;;;;4.23;53.19;100620.66;5410410;32;33916;-72
2021/12/12 13:36:56;;;;;;;9.83;4.00;;;;;;;4.05;53.38;100619.94;5427174;32;34535;-72
2021/12/12 13:40:11;;;;;;;10.93;4.30;;;;;;;4.08;53.75;100616.47;5431764;32;34759;-71
2021/12/12 13:43:26;;;;;;;14.00;5.60;;;;;;;4.35;53.43;100628.38;5428648;32;33771;-72
2021/12/12 13:46:37;;;;;;;11.90;4.57;;;;;;;4.21;53.75;100619.84;5415000;32;34538;-72
2021/12/12 13:49:48;;;;;;;11.17;4.70;;;;;;;4.37;52.93;100625.75;5420470;32;36419;-72
2021/12/12 13:53:25;;;;;;;9.73;4.00;;;;;;;4.10;53.51;100627.72;5403512;32;34656;-71
2021/12/12 13:56:37;;;;;;;12.93;5.03;;;;;;;4.19;53.36;100624.19;5423632;32;34463;-71
2021/12/12 13:59:46;;;;;;;16.37;4.63;;;;;;;4.28;53.10;100624.97;5405456;32;34307;-71
2021/12/12 14:02:57;;;;;;;9.27;4.30;;;;;;;4.93;51.59;100632.06;5402678;32;35117;-71
2021/12/12 14:06:02;;;;;;;11.40;4.77;;;;;;;4.26;52.91;100637.13;5433925;32;35211;-71
2021/12/12 14:09:09;;;;;;;12.37;5.13;;;;;;;4.64;52.36;100646.31;5415150;32;34519;-71
2021/12/12 14:12:13;;;;;;;23.57;3.77;;;;;;;4.48;52.66;100649.94;5417853;32;35243;-71
2021/12/12 14:15:19;;;;;;;13.13;5.17;;;;;;;4.29;52.51;100652.69;5402083;32;34119;-71
2021/12/12 14:18:24;;;;;;;11.23;4.20;;;;;;;3.96;53.38;100653.00;5401609;32;35041;-71
2021/12/12 14:21:28;;;;;;;20.37;4.47;;;;;;;4.22;53.21;100653.63;5416607;32;33959;-70
2021/12/12 14:24:31;;;;;;;13.57;4.97;;;;;;;4.21;52.81;100656.25;5405637;32;36214;-70
2021/12/12 14:27:36;;;;;;;16.20;4.90;;;;;;;3.99;53.77;100660.75;5434413;32;34635;-72
2021/12/12 14:30:44;;;;;;;12.60;5.43;;;;;;;4.11;53.84;100657.19;5428033;32;34104;-72
2021/12/12 14:33:53;;;;;;;9.23;4.07;;;;;;;3.66;54.46;100660.13;5433034;32;33702;-73
2021/12/12 14:36:56;;;;;;;15.53;5.43;;;;;;;3.40;55.00;100656.81;5422715;32;34810;-70
2021/12/12 14:40:12;;;;;;;11.88;4.30;;;;;;;3.47;55.06;100671.50;5430390;32;34018;-71
2021/12/12 14:43:31;;;;;;;18.47;4.70;;;;;;;3.79;54.02;100666.09;5423718;32;34114;-71
2021/12/12 14:46:47;;;;;;;11.57;4.83;;;;;;;3.36;55.13;100676.78;5431447;32;35396;-72
2021/12/12 14:49:55;;;;;;;10.87;4.90;;;;;;;3.73;54.25;100664.41;5417463;32;33795;-71
2021/12/12 14:53:04;;;;;;;11.60;4.97;;;;;;;3.14;56.38;100668.22;5423833;32;34224;-72
2021/12/12 14:56:10;;;;;;;12.97;5.70;;;;;;;3.18;55.94;100672.53;5431034;32;34235;-71
2021/12/12 14:59:21;;;;;;;14.37;5.60;;;;;;;3.08;56.60;100681.22;5409720;32;34540;-72
2021/12/12 15:02:38;;;;;;;12.13;5.13;;;;;;;3.09;56.48;100690.75;5411484;32;34148;-72
2021/12/12 15:05:45;;;;;;;11.13;4.83;;;;;;;3.57;55.41;100691.37;5431501;32;34026;-72